Time;durP1;ratioP1;P1;durP2;ratioP2;P2;SDS_P1;SDS_P2;PMS_P1;PMS_P2;Temp;Humidity;BMP_temperature;BMP_pressure;BME280_temperature;BME280_humidity;BME280_pressure;Samples;Min_cycle;Max_cycle;Signal;HPM_P1;HPM_P2
2021/10/02 00:46:57;;;;;;;;;;;;;;;13.29;80.30;99344.56;5055277;28;20000;-72
2021/10/02 00:49:23;;;;;;;;;;;;;;;13.30;79.95;99333.03;5038451;22;19957;-71
2021/10/02 00:51:48;;;;;;;;;;;;;;;13.29;79.38;99341.91;5004287;28;19967;-71
2021/10/02 00:54:13;;;;;;;;;;;;;;;13.30;79.64;99328.59;4986804;28;19917;-71
2021/10/02 00:56:39;;;;;;;;;;;;;;;13.31;80.12;99326.78;5003905;28;19980;-71
2021/10/02 00:59:04;;;;;;;;;;;;;;;13.28;79.62;99319.06;4996198;28;20381;-72
2021/10/02 01:01:48;;;;;;;;;;;;;;;13.29;80.11;99315.44;4971049;28;19972;-72
2021/10/02 01:04:43;;;;;;;;;;;;;;;13.33;79.89;99324.88;4996028;28;19913;-72
2021/10/02 01:07:08;;;;;;;;;;;;;;;13.34;79.79;99309.84;4995691;28;19923;-73
2021/10/02 01:09:54;;;;;;;;;;;;;;;13.36;80.17;99302.63;4996015;28;19996;-71
2021/10/02 01:12:36;;;;;;;;;;;;;;;13.34;79.73;99317.78;4995338;28;19921;-72
2021/10/02 01:15:08;;;;;;;;;;;;;;;13.34;80.17;99318.66;5000106;28;20013;-71
2021/10/02 01:17:53;;;;;;;;;;;;;;;13.37;79.29;99310.50;4994697;28;19924;-71
2021/10/02 01:20:21;;;;;;;;;;;;;;;13.41;79.60;99314.59;4989761;28;19929;-71
2021/10/02 01:23:05;;;;;;;;;;;;;;;13.43;79.54;99312.69;4974612;28;20012;-71
2021/10/02 01:25:33;;;;;;;;;;;;;;;13.41;79.19;99300.53;4976601;28;19925;-70
2021/10/02 01:28:19;;;;;;;;;;;;;;;13.40;79.11;99306.78;4976316;28;20420;-71
2021/10/02 01:47:11;;;;;;;;;;;;;;;13.43;79.20;99311.84;4972350;28;19964;-72
2021/10/02 01:49:37;;;;;;;;;;;;;;;13.43;78.80;99304.75;4973438;28;19918;-72
2021/10/02 01:52:02;;;;;;;;;;;;;;;13.44;78.83;99305.63;4973109;28;19922;-73
2021/10/02 01:54:28;;;;;;;;;;;;;;;13.46;78.61;99316.94;4974012;28;20329;-72
2021/10/02 01:56:54;;;;;;;;;;;;;;;13.43;78.94;99301.28;4973969;28;20289;-72
2021/10/02 01:59:19;;;;;;;;;;;;;;;13.47;78.80;99303.59;4974155;28;19914;-72
2021/10/02 02:01:47;;;;;;;;;;;;;;;13.44;79.18;99285.28;4974316;28;19968;-73
2021/10/02 02:04:13;;;;;;;;;;;;;;;13.45;78.97;99289.63;4971470;28;20359;-72
2021/10/02 02:06:41;;;;;;;;;;;;;;;13.45;78.53;99273.72;4971590;28;19965;-73
2021/10/02 02:09:08;;;;;;;;;;;;;;;13.45;78.90;99276.38;4971084;28;19949;-72
2021/10/02 02:11:34;;;;;;;;;;;;;;;13.48;79.25;99277.97;4972238;28;20026;-72
2021/10/02 02:14:00;;;;;;;;;;;;;;;13.50;78.79;99284.00;4972902;28;19918;-72
2021/10/02 02:16:25;;;;;;;;;;;;;;;13.50;78.76;99284.84;4973153;28;20330;-72
2021/10/02 02:18:51;;;;;;;;;;;;;;;13.49;79.24;99284.97;4973162;28;19918;-72
2021/10/02 02:21:17;;;;;;;;;;;;;;;13.47;78.52;99292.16;4972348;28;19921;-72
2021/10/02 02:23:42;;;;;;;;;;;;;;;13.47;79.18;99284.22;4972848;28;19922;-73
2021/10/02 02:26:09;;;;;;;;;;;;;;;13.47;78.88;99282.41;4971747;28;19917;-72
2021/10/02 02:28:34;;;;;;;;;;;;;;;13.48;79.41;99277.97;4971055;28;19922;-72
2021/10/02 02:31:00;;;;;;;;;;;;;;;13.46;79.33;99270.16;4971989;28;19997;-71
2021/10/02 02:33:26;;;;;;;;;;;;;;;13.42;79.84;99268.66;4974303;28;19922;-72
2021/10/02 02:35:52;;;;;;;;;;;;;;;13.38;80.29;99276.91;4972977;28;19914;-71
2021/10/02 02:38:18;;;;;;;;;;;;;;;13.37;80.51;99270.78;5011030;28;19944;-71
2021/10/02 02:40:43;;;;;;;;;;;;;;;13.37;80.52;99272.59;5011638;28;19959;-71
2021/10/02 02:43:09;;;;;;;;;;;;;;;13.39;80.55;99276.81;5010882;28;19920;-72
2021/10/02 02:45:35;;;;;;;;;;;;;;;13.41;81.19;99266.94;5011461;28;19913;-71
2021/10/02 02:48:06;;;;;;;;;;;;;;;13.42;80.96;99266.00;5010463;28;19917;-71
2021/10/02 02:50:31;;;;;;;;;;;;;;;13.47;80.60;99271.00;5011142;28;19962;-71
2021/10/02 02:53:01;;;;;;;;;;;;;;;13.52;80.54;99271.50;5009890;28;19992;-71
2021/10/02 02:55:29;;;;;;;;;;;;;;;13.53;80.71;99281.13;5010384;28;19917;-71
2021/10/02 02:57:55;;;;;;;;;;;;;;;13.50;80.29;99273.41;5011016;28;20357;-71
2021/10/02 03:00:21;;;;;;;;;;;;;;;13.51;79.98;99268.03;5011320;28;19925;-71
2021/10/02 03:02:47;;;;;;;;;;;;;;;13.50;80.31;99261.00;5010263;28;19920;-71
2021/10/02 03:05:12;;;;;;;;;;;;;;;13.50;80.13;99265.47;5011002;28;20357;-71
2021/10/02 03:07:40;;;;;;;;;;;;;;;13.50;80.72;99266.31;5010960;28;20009;-71
2021/10/02 03:10:10;;;;;;;;;;;;;;;13.53;80.45;99268.72;5010331;28;19921;-71
2021/10/02 03:12:37;;;;;;;;;;;;;;;13.53;79.98;99266.09;5009566;28;20344;-71
2021/10/02 03:15:04;;;;;;;;;;;;;;;13.54;80.05;99261.66;5010209;28;19918;-71
2021/10/02 03:17:29;;;;;;;;;;;;;;;13.52;80.35;99256.47;5010497;28;19920;-71
2021/10/02 03:19:55;;;;;;;;;;;;;;;13.51;79.77;99262.72;5010365;28;20337;-72
2021/10/02 03:22:20;;;;;;;;;;;;;;;13.53;79.87;99257.31;5005918;28;19917;-70
2021/10/02 03:24:47;;;;;;;;;;;;;;;13.52;80.36;99253.81;4990591;28;19940;-71
2021/10/02 03:27:12;;;;;;;;;;;;;;;13.48;80.65;99243.53;4990934;28;19914;-72
2021/10/02 03:29:38;;;;;;;;;;;;;;;13.48;80.34;99254.97;4990361;28;19971;-72
2021/10/02 03:32:04;;;;;;;;;;;;;;;13.52;80.60;99247.69;4989561;28;19914;-72
2021/10/02 03:34:29;;;;;;;;;;;;;;;13.56;80.20;99250.94;4990673;28;19945;-72
2021/10/02 03:36:55;;;;;;;;;;;;;;;13.57;80.04;99250.84;4987270;28;20007;-72
2021/10/02 03:39:20;;;;;;;;;;;;;;;13.60;80.05;99255.09;4990869;28;19917;-71
2021/10/02 03:42:01;;;;;;;;;;;;;;;13.59;78.88;99248.09;4989729;28;19914;-72
2021/10/02 03:44:27;;;;;;;;;;;;;;;13.58;79.37;99256.97;5010315;28;19914;-72
2021/10/02 03:46:52;;;;;;;;;;;;;;;13.59;79.64;99253.41;5010128;28;19914;-72
2021/10/02 03:49:18;;;;;;;;;;;;;;;13.56;79.67;99245.66;5010336;28;19943;-72
2021/10/02 03:51:45;;;;;;;;;;;;;;;13.54;80.28;99245.78;5009180;28;19920;-72
2021/10/02 03:54:10;;;;;;;;;;;;;;;13.55;79.89;99242.16;5009574;28;19921;-72
2021/10/02 03:56:36;;;;;;;;;;;;;;;13.59;80.01;99241.00;5009819;28;19935;-72
2021/10/02 03:59:01;;;;;;;;;;;;;;;13.58;79.74;99243.75;5008381;28;19921;-71
2021/10/02 04:01:26;;;;;;;;;;;;;;;13.58;79.53;99241.09;5009207;28;20389;-71
2021/10/02 04:03:51;;;;;;;;;;;;;;;13.58;79.48;99230.50;5009577;28;19949;-71
2021/10/02 04:06:17;;;;;;;;;;;;;;;13.57;79.36;99237.59;5009466;28;19920;-72
2021/10/02 04:08:42;;;;;;;;;;;;;;;13.61;79.33;99235.56;5008910;28;20159;-71
2021/10/02 04:11:07;;;;;;;;;;;;;;;13.57;79.12;99239.41;5008934;28;19967;-70
2021/10/02 04:13:32;;;;;;;;;;;;;;;13.51;79.21;99236.25;5009890;28;19917;-72
2021/10/02 04:15:57;;;;;;;;;;;;;;;13.48;79.39;99232.94;5009658;28;19925;-72
2021/10/02 04:18:23;;;;;;;;;;;;;;;13.45;79.88;99223.41;5009592;28;19913;-72
2021/10/02 04:20:48;;;;;;;;;;;;;;;13.46;79.62;99225.13;5010144;28;19952;-72
2021/10/02 04:23:13;;;;;;;;;;;;;;;13.44;79.21;99220.91;5008936;28;19917;-72
2021/10/02 04:25:38;;;;;;;;;;;;;;;13.44;79.40;99219.09;5009795;28;19917;-72
2021/10/02 04:28:03;;;;;;;;;;;;;;;13.44;79.94;99228.84;5006300;28;19975;-72
2021/10/02 04:30:29;;;;;;;;;;;;;;;13.45;79.71;99225.22;5008250;28;20344;-72
2021/10/02 04:32:54;;;;;;;;;;;;;;;13.46;79.84;99226.91;5009276;28;19917;-72
2021/10/02 04:35:19;;;;;;;;;;;;;;;13.46;79.93;99224.25;5011969;28;19917;-72
2021/10/02 04:37:45;;;;;;;;;;;;;;;13.45;80.27;99231.38;5010583;28;19917;-72
2021/10/02 04:40:11;;;;;;;;;;;;;;;13.44;80.53;99224.38;5007967;28;20320;-72
2021/10/02 04:42:36;;;;;;;;;;;;;;;13.43;80.25;99222.66;5007277;28;19913;-72
2021/10/02 04:45:01;;;;;;;;;;;;;;;13.44;80.29;99219.09;5008084;28;19914;-72
2021/10/02 04:47:27;;;;;;;;;;;;;;;13.45;80.14;99214.63;5009363;28;19920;-72
2021/10/02 04:49:53;;;;;;;;;;;;;;;13.40;80.16;99209.66;5009721;28;19917;-71
2021/10/02 04:52:18;;;;;;;;;;;;;;;13.39;79.86;99202.69;5008611;28;20570;-73
2021/10/02 04:54:43;;;;;;;;;;;;;;;13.36;79.51;99218.75;5009074;28;20218;-73
2021/10/02 04:57:08;;;;;;;;;;;;;;;13.35;79.54;99210.94;5009146;28;19913;-73
2021/10/02 04:59:34;;;;;;;;;;;;;;;13.34;80.09;99215.41;5009241;28;19914;-72
2021/10/02 05:01:59;;;;;;;;;;;;;;;13.34;79.94;99215.41;5003484;28;19914;-73
2021/10/02 05:04:24;;;;;;;;;;;;;;;13.34;80.21;99207.44;5008758;28;19913;-73
2021/10/02 05:06:49;;;;;;;;;;;;;;;13.34;79.56;99211.88;5009686;28;19933;-73
2021/10/02 05:09:14;;;;;;;;;;;;;;;13.31;80.00;99205.00;5008748;28;19921;-73
2021/10/02 05:11:40;;;;;;;;;;;;;;;13.27;79.31;99211.47;5008310;28;19917;-73
2021/10/02 05:14:05;;;;;;;;;;;;;;;13.28;80.15;99207.88;5008989;28;19921;-73
2021/10/02 05:16:30;;;;;;;;;;;;;;;13.28;79.40;99223.75;5011566;28;19944;-74
2021/10/02 05:18:55;;;;;;;;;;;;;;;13.26;80.01;99215.03;5012697;28;19920;-72
2021/10/02 05:21:21;;;;;;;;;;;;;;;13.26;79.57;99217.69;5012808;28;19913;-72
2021/10/02 05:23:46;;;;;;;;;;;;;;;13.26;80.32;99218.50;5012646;28;19914;-72
2021/10/02 05:26:11;;;;;;;;;;;;;;;13.26;79.95;99215.03;5009242;28;19964;-72
2021/10/02 05:28:37;;;;;;;;;;;;;;;13.23;79.98;99220.53;5011341;28;19913;-73
2021/10/02 05:31:02;;;;;;;;;;;;;;;13.23;79.81;99217.91;4997754;28;19929;-72
2021/10/02 05:33:27;;;;;;;;;;;;;;;13.25;79.64;99219.47;4995372;28;19914;-71
2021/10/02 05:35:53;;;;;;;;;;;;;;;13.21;80.02;99225.94;4995830;28;20386;-70
2021/10/02 05:38:20;;;;;;;;;;;;;;;13.24;79.72;99227.53;4996093;28;19918;-71
2021/10/02 05:40:46;;;;;;;;;;;;;;;13.19;80.54;99219.06;4996932;28;19969;-70
2021/10/02 05:43:11;;;;;;;;;;;;;;;13.18;80.48;99222.66;4995201;28;19968;-72
2021/10/02 05:45:36;;;;;;;;;;;;;;;13.17;79.96;99227.13;4996709;28;19956;-71
2021/10/02 05:48:01;;;;;;;;;;;;;;;13.18;80.78;99230.59;4996672;28;19996;-72
2021/10/02 05:50:26;;;;;;;;;;;;;;;13.15;80.61;99221.06;4975923;28;20388;-71
2021/10/02 05:52:52;;;;;;;;;;;;;;;13.08;80.35;99223.28;4993105;28;19913;-71
2021/10/02 05:55:17;;;;;;;;;;;;;;;13.04;80.77;99213.03;4992547;28;19980;-72
2021/10/02 05:57:42;;;;;;;;;;;;;;;12.97;80.98;99217.91;4992539;28;19913;-71
2021/10/02 06:00:08;;;;;;;;;;;;;;;12.97;81.50;99214.38;4995100;28;20009;-72
2021/10/02 06:02:33;;;;;;;;;;;;;;;12.91;80.75;99213.00;4991627;28;19920;-72
2021/10/02 06:04:59;;;;;;;;;;;;;;;12.88;81.11;99211.44;4993511;28;19913;-72
2021/10/02 06:07:24;;;;;;;;;;;;;;;12.86;80.59;99205.38;4991927;28;19913;-73
2021/10/02 06:09:51;;;;;;;;;;;;;;;12.88;80.46;99202.66;4992575;28;19918;-73
2021/10/02 06:12:16;;;;;;;;;;;;;;;12.88;80.60;99213.22;4991537;28;20005;-72
2021/10/02 06:14:42;;;;;;;;;;;;;;;12.92;80.56;99206.78;4991727;28;20000;-71
2021/10/02 06:17:07;;;;;;;;;;;;;;;12.97;80.21;99217.03;4992479;28;19921;-71
2021/10/02 06:19:32;;;;;;;;;;;;;;;13.00;80.67;99220.34;4992481;28;20370;-71
2021/10/02 06:21:59;;;;;;;;;;;;;;;13.05;80.55;99227.97;4991419;28;19928;-71
2021/10/02 06:24:25;;;;;;;;;;;;;;;13.07;79.50;99232.19;4992483;28;20625;-71
2021/10/02 06:26:50;;;;;;;;;;;;;;;13.06;80.13;99227.00;4999688;28;19970;-71
2021/10/02 06:29:15;;;;;;;;;;;;;;;13.07;79.86;99226.06;4998390;28;20004;-71
2021/10/02 06:31:40;;;;;;;;;;;;;;;13.10;79.82;99224.03;4991126;28;19914;-71
2021/10/02 06:34:06;;;;;;;;;;;;;;;13.16;80.50;99224.56;4991757;28;20270;-71
2021/10/02 06:36:32;;;;;;;;;;;;;;;13.19;79.66;99227.88;4991208;28;19913;-71
2021/10/02 06:38:59;;;;;;;;;;;;;;;13.28;79.28;99234.34;4990019;28;20354;-71
2021/10/02 06:41:24;;;;;;;;;;;;;;;13.32;79.08;99233.19;4991238;28;20281;-71
2021/10/02 06:43:50;;;;;;;;;;;;;;;13.36;78.86;99232.00;4991638;28;19918;-71
2021/10/02 06:46:15;;;;;;;;;;;;;;;13.39;78.21;99239.75;4991567;28;19973;-71
2021/10/02 06:48:41;;;;;;;;;;;;;;;13.44;78.99;99236.78;4989888;28;19921;-72
2021/10/02 06:51:06;;;;;;;;;;;;;;;13.49;78.53;99232.84;4990794;28;19914;-72
2021/10/02 06:53:32;;;;;;;;;;;;;;;13.56;78.83;99227.09;4991134;28;20333;-72
2021/10/02 06:55:57;;;;;;;;;;;;;;;13.54;78.40;99227.25;4991164;28;19918;-72
2021/10/02 06:58:22;;;;;;;;;;;;;;;13.60;78.15;99225.94;4991492;28;19914;-72
2021/10/02 07:00:48;;;;;;;;;;;;;;;13.64;77.92;99232.72;4991202;28;19941;-73
2021/10/02 07:03:13;;;;;;;;;;;;;;;13.66;77.60;99233.44;4990582;28;19921;-71
2021/10/02 07:05:38;;;;;;;;;;;;;;;13.66;77.63;99229.03;4991094;28;19972;-72
2021/10/02 07:08:04;;;;;;;;;;;;;;;13.66;77.95;99234.31;4990954;28;20033;-72
2021/10/02 07:10:29;;;;;;;;;;;;;;;13.66;78.07;99238.75;4990979;28;19914;-73
2021/10/02 07:12:55;;;;;;;;;;;;;;;13.69;78.25;99241.19;4990365;28;19964;-73
2021/10/02 07:15:21;;;;;;;;;;;;;;;13.71;77.79;99242.78;5010688;28;20292;-72
2021/10/02 07:17:46;;;;;;;;;;;;;;;13.78;77.81;99247.63;5010754;28;19913;-72
2021/10/02 07:20:14;;;;;;;;;;;;;;;13.83;77.89;99250.78;5011461;28;19971;-72
2021/10/02 07:22:39;;;;;;;;;;;;;;;13.83;77.46;99233.13;5009733;28;20289;-72
2021/10/02 07:25:06;;;;;;;;;;;;;;;13.84;77.09;99210.09;5010302;28;19920;-73
2021/10/02 07:27:31;;;;;;;;;;;;;;;13.87;76.85;99186.88;5010225;28;19917;-71
2021/10/02 07:29:57;;;;;;;;;;;;;;;13.97;76.77;99184.41;5008385;28;19996;-73
2021/10/02 07:32:23;;;;;;;;;;;;;;;14.14;76.29;99201.72;5004761;28;20349;-73
2021/10/02 07:34:49;;;;;;;;;;;;;;;14.23;76.31;99187.81;4971102;28;19918;-73
2021/10/02 07:37:14;;;;;;;;;;;;;;;14.33;76.44;99195.94;4970874;28;19921;-72
2021/10/02 07:39:39;;;;;;;;;;;;;;;14.36;76.33;99204.47;4968555;28;20286;-71
2021/10/02 07:42:05;;;;;;;;;;;;;;;14.37;75.80;99192.94;4969869;28;20441;-72
2021/10/02 07:44:31;;;;;;;;;;;;;;;14.39;76.33;99185.69;4968628;28;20095;-74
2021/10/02 07:46:57;;;;;;;;;;;;;;;14.35;75.39;99183.41;4969293;28;19960;-72
2021/10/02 07:49:23;;;;;;;;;;;;;;;14.39;76.16;99172.44;4970826;28;19957;-73
2021/10/02 07:51:49;;;;;;;;;;;;;;;14.42;75.75;99165.22;4970214;28;19920;-72
2021/10/02 07:54:16;;;;;;;;;;;;;;;14.53;75.39;99159.94;4970729;28;20008;-73
2021/10/02 07:56:43;;;;;;;;;;;;;;;14.69;75.21;99160.50;4970431;28;19914;-72
2021/10/02 07:59:08;;;;;;;;;;;;;;;14.81;74.54;99148.09;4968923;28;19929;-72
2021/10/02 08:01:34;;;;;;;;;;;;;;;14.87;73.83;99138.84;4960168;28;19914;-73
2021/10/02 08:04:03;;;;;;;;;;;;;;;14.96;74.10;99141.63;4984817;28;19914;-74
2021/10/02 08:06:29;;;;;;;;;;;;;;;15.10;74.31;99129.91;4970930;28;19929;-73
2021/10/02 08:08:55;;;;;;;;;;;;;;;15.19;73.23;99128.34;4969537;28;19918;-73
2021/10/02 08:11:20;;;;;;;;;;;;;;;15.34;73.52;99131.59;4969543;28;19968;-72
2021/10/02 08:13:46;;;;;;;;;;;;;;;15.57;72.36;99129.75;4968917;28;19929;-73
2021/10/02 08:16:11;;;;;;;;;;;;;;;15.79;71.91;99129.75;4970314;28;20015;-73
2021/10/02 08:18:39;;;;;;;;;;;;;;;15.94;71.47;99132.13;4970386;28;20004;-71
2021/10/02 08:21:05;;;;;;;;;;;;;;;16.03;70.15;99134.88;4969869;28;20586;-71
2021/10/02 08:23:33;;;;;;;;;;;;;;;16.04;70.10;99117.94;4970308;28;19918;-72
2021/10/02 08:25:59;;;;;;;;;;;;;;;16.17;69.85;99122.22;4968903;28;19973;-72
2021/10/02 08:28:25;;;;;;;;;;;;;;;16.31;69.84;99116.63;4968928;28;20405;-72
2021/10/02 08:30:52;;;;;;;;;;;;;;;16.44;69.99;99111.97;4970150;28;19918;-72
2021/10/02 08:33:17;;;;;;;;;;;;;;;16.48;68.75;99110.72;4968662;28;19915;-72
2021/10/02 08:35:43;;;;;;;;;;;;;;;16.43;68.59;99114.75;4972236;28;19973;-73
2021/10/02 08:38:08;;;;;;;;;;;;;;;16.41;68.13;99122.84;4970478;28;19921;-71
2021/10/02 08:40:34;;;;;;;;;;;;;;;16.40;68.58;99126.50;4970366;28;19949;-72
2021/10/02 08:43:00;;;;;;;;;;;;;;;16.32;67.70;99110.34;4969696;28;20782;-72
2021/10/02 08:45:27;;;;;;;;;;;;;;;16.25;68.41;99110.00;4970079;28;19918;-72
2021/10/02 08:47:53;;;;;;;;;;;;;;;16.33;68.74;99096.06;4970171;28;20366;-73
2021/10/02 08:50:18;;;;;;;;;;;;;;;16.72;67.73;99096.31;4968661;28;19929;-71
2021/10/02 08:52:45;;;;;;;;;;;;;;;16.97;66.43;99095.06;4971560;28;19956;-72
2021/10/02 08:55:11;;;;;;;;;;;;;;;17.19;65.02;99087.88;4973867;28;20345;-72
2021/10/02 08:57:36;;;;;;;;;;;;;;;17.42;64.57;99083.16;4973749;28;19964;-73
2021/10/02 09:00:09;;;;;;;;;;;;;;;17.35;64.73;99082.84;4972656;28;19921;-72
2021/10/02 09:02:34;;;;;;;;;;;;;;;17.14;64.90;99072.28;4971810;28;19964;-73
2021/10/02 09:05:00;;;;;;;;;;;;;;;17.10;64.12;99074.34;4973887;28;19989;-73
2021/10/02 09:07:25;;;;;;;;;;;;;;;17.04;65.05;99063.41;4973605;28;19920;-73
2021/10/02 09:09:54;;;;;;;;;;;;;;;17.17;64.28;99067.50;4973642;28;21250;-73
2021/10/02 09:12:21;;;;;;;;;;;;;;;17.09;64.84;99061.19;4972771;28;19914;-71
2021/10/02 09:14:47;;;;;;;;;;;;;;;16.99;65.17;99049.66;4973341;28;19946;-72
2021/10/02 09:17:12;;;;;;;;;;;;;;;16.98;65.73;99048.81;4975898;28;19952;-72
2021/10/02 09:19:38;;;;;;;;;;;;;;;16.98;65.25;99040.81;4973615;28;19975;-72
2021/10/02 09:22:04;;;;;;;;;;;;;;;17.03;65.73;99030.63;4972856;28;19927;-72
2021/10/02 09:24:32;;;;;;;;;;;;;;;17.04;65.67;99034.97;4972598;28;19950;-72
2021/10/02 09:26:57;;;;;;;;;;;;;;;17.12;64.71;99029.78;4973599;28;19914;-73
2021/10/02 09:29:36;;;;;;;;;;;;;;;17.70;62.58;99029.06;4975497;28;19941;-73
2021/10/02 09:32:02;;;;;;;;;;;;;;;18.37;60.65;99023.84;4973280;28;19921;-72
2021/10/02 09:34:27;;;;;;;;;;;;;;;18.50;59.94;99026.19;4973738;28;19924;-73
2021/10/02 09:36:52;;;;;;;;;;;;;;;18.51;60.07;99027.88;4972231;28;20056;-73
2021/10/02 09:39:18;;;;;;;;;;;;;;;18.41;59.98;99027.88;4973353;28;19918;-72
2021/10/02 09:41:47;;;;;;;;;;;;;;;18.38;59.62;99031.69;4972823;28;19914;-72
2021/10/02 09:44:20;;;;;;;;;;;;;;;18.42;59.69;99030.44;4973499;28;19929;-72
2021/10/02 09:46:45;;;;;;;;;;;;;;;18.37;59.63;99034.53;4973537;28;19968;-72
2021/10/02 09:49:10;;;;;;;;;;;;;;;18.08;60.14;99037.22;4972954;28;19918;-72
2021/10/02 09:51:38;;;;;;;;;;;;;;;17.87;61.25;99046.22;4972618;28;19917;-72
2021/10/02 09:54:03;;;;;;;;;;;;;;;17.75;61.77;99048.16;4973213;28;19925;-72
2021/10/02 09:56:29;;;;;;;;;;;;;;;17.71;61.82;99052.06;4974035;28;19913;-73
2021/10/02 09:58:54;;;;;;;;;;;;;;;17.60;62.10;99049.53;4973760;28;19921;-72
2021/10/02 10:01:20;;;;;;;;;;;;;;;17.46;62.73;99041.94;4971210;28;19922;-73
2021/10/02 10:03:46;;;;;;;;;;;;;;;17.51;62.91;99039.69;4972738;28;19953;-73
2021/10/02 10:06:16;;;;;;;;;;;;;;;18.35;61.57;99028.47;4974175;28;19953;-72
2021/10/02 10:08:41;;;;;;;;;;;;;;;19.41;56.86;99018.34;4979247;28;19914;-73
2021/10/02 10:11:08;;;;;;;;;;;;;;;19.35;57.16;99014.47;4979363;28;20401;-72
2021/10/02 10:13:33;;;;;;;;;;;;;;;19.55;55.91;99008.97;4982950;28;19936;-73
2021/10/02 10:15:59;;;;;;;;;;;;;;;19.86;55.33;98999.63;4977740;28;20371;-72
2021/10/02 10:18:28;;;;;;;;;;;;;;;20.29;53.32;98989.88;4974639;28;19914;-72
2021/10/02 10:20:55;;;;;;;;;;;;;;;19.73;55.35;98980.41;4972771;28;19918;-73
2021/10/02 10:23:32;;;;;;;;;;;;;;;19.27;55.80;98977.81;4972089;28;19958;-73
2021/10/02 10:26:00;;;;;;;;;;;;;;;19.46;55.69;98970.63;4972725;28;19914;-71
2021/10/02 10:28:27;;;;;;;;;;;;;;;19.44;56.07;98968.13;4964027;28;19914;-73
2021/10/02 10:30:52;;;;;;;;;;;;;;;19.56;55.50;98965.19;4971928;28;20375;-72
2021/10/02 10:33:18;;;;;;;;;;;;;;;19.61;55.48;98957.56;4972641;28;19953;-72
2021/10/02 10:35:47;;;;;;;;;;;;;;;19.16;56.45;98964.63;4972729;28;19993;-72
2021/10/02 10:38:15;;;;;;;;;;;;;;;18.99;57.13;98944.06;4972185;28;19914;-73
2021/10/02 10:40:41;;;;;;;;;;;;;;;18.91;57.18;98944.84;4989124;28;19918;-72
2021/10/02 10:43:06;;;;;;;;;;;;;;;18.93;56.76;98942.84;4991253;28;19921;-72
2021/10/02 10:45:34;;;;;;;;;;;;;;;19.03;57.12;98950.81;4992040;28;19937;-72
2021/10/02 10:48:00;;;;;;;;;;;;;;;18.75;56.53;98945.44;4990719;28;19918;-73
2021/10/02 10:50:25;;;;;;;;;;;;;;;18.85;56.63;98945.41;4991638;28;20016;-73
2021/10/02 10:52:51;;;;;;;;;;;;;;;18.89;56.49;98938.78;4989459;28;19964;-72
2021/10/02 10:55:19;;;;;;;;;;;;;;;18.78;56.94;98936.31;4991025;28;19932;-71
2021/10/02 10:57:44;;;;;;;;;;;;;;;18.77;57.08;98938.16;4991276;28;20369;-72
2021/10/02 11:00:11;;;;;;;;;;;;;;;18.81;56.91;98931.53;4991222;28;19940;-73
2021/10/02 11:02:40;;;;;;;;;;;;;;;18.81;56.92;98922.69;4990361;28;19914;-71
2021/10/02 11:05:06;;;;;;;;;;;;;;;18.97;55.51;98925.50;4991323;28;19921;-71
2021/10/02 11:07:50;;;;;;;;;;;;;;;18.83;55.68;98942.06;4990630;28;19921;-72
2021/10/02 11:10:34;;;;;;;;;;;;;;;18.83;55.08;98928.72;4973188;28;19997;-72
2021/10/02 11:12:59;;;;;;;;;;;;;;;18.59;55.24;98923.88;4987014;28;19917;-72
2021/10/02 11:15:25;;;;;;;;;;;;;;;18.72;55.19;98923.53;4990533;28;19917;-72
2021/10/02 11:17:50;;;;;;;;;;;;;;;18.83;54.90;98920.72;4990686;28;19917;-70
2021/10/02 11:20:20;;;;;;;;;;;;;;;19.01;54.53;98902.88;4990600;28;19913;-72
2021/10/02 11:23:07;;;;;;;;;;;;;;;18.99;54.54;98907.50;4990125;28;19917;-72
2021/10/02 11:25:33;;;;;;;;;;;;;;;19.12;54.92;98901.78;4990450;28;19920;-72
2021/10/02 11:28:17;;;;;;;;;;;;;;;19.19;54.17;98904.72;4990258;28;20304;-72
2021/10/02 11:30:46;;;;;;;;;;;;;;;19.12;54.43;98900.97;5006489;28;20353;-72
2021/10/02 11:33:30;;;;;;;;;;;;;;;19.06;54.23;98878.38;5009282;28;19921;-72
2021/10/02 11:35:56;;;;;;;;;;;;;;;19.17;54.28;98875.47;5006570;28;19917;-73
2021/10/02 11:38:37;;;;;;;;;;;;;;;19.16;54.34;98872.97;5010121;28;20412;-73
2021/10/02 11:41:22;;;;;;;;;;;;;;;18.94;53.84;98864.41;4992477;28;19921;-72
2021/10/02 11:43:54;;;;;;;;;;;;;;;18.77;54.21;98859.88;4990021;28;19960;-71
2021/10/02 11:46:24;;;;;;;;;;;;;;;18.79;54.61;98855.22;4989745;28;19936;-73
2021/10/02 11:48:50;;;;;;;;;;;;;;;18.87;54.03;98858.81;4990035;28;19918;-72
2021/10/02 11:51:16;;;;;;;;;;;;;;;18.68;53.51;98856.25;4989422;28;19979;-72
2021/10/02 11:53:43;;;;;;;;;;;;;;;18.57;54.11;98843.94;4990280;28;19917;-72
2021/10/02 11:56:21;;;;;;;;;;;;;;;18.37;54.48;98831.72;4990382;28;19917;-73
2021/10/02 11:58:51;;;;;;;;;;;;;;;18.28;54.42;98837.91;4990597;28;19914;-73
2021/10/02 12:01:21;;;;;;;;;;;;;;;18.10;54.62;98836.03;4988571;28;19921;-71
2021/10/02 12:03:47;;;;;;;;;;;;;;;17.94;55.33;98833.13;4990429;28;19914;-71
2021/10/02 12:06:12;;;;;;;;;;;;;;;17.94;55.46;98828.69;4989054;28;19924;-73
2021/10/02 12:08:39;;;;;;;;;;;;;;;18.10;55.21;98822.69;4990232;28;19917;-73
2021/10/02 12:11:05;;;;;;;;;;;;;;;18.18;54.85;98814.78;4989912;28;20384;-72
2021/10/02 12:13:33;;;;;;;;;;;;;;;18.23;53.77;98804.50;4989958;28;19924;-72
2021/10/02 12:15:59;;;;;;;;;;;;;;;18.30;54.17;98801.25;4990193;28;20009;-73
2021/10/02 12:18:25;;;;;;;;;;;;;;;18.14;54.24;98796.56;4988213;28;20584;-73
2021/10/02 12:20:50;;;;;;;;;;;;;;;18.24;54.36;98784.88;4989838;28;19996;-72
2021/10/02 12:23:16;;;;;;;;;;;;;;;18.39;54.33;98776.34;4989400;28;20000;-72
2021/10/02 12:25:41;;;;;;;;;;;;;;;18.34;53.26;98776.81;4989267;28;19913;-73
2021/10/02 12:28:06;;;;;;;;;;;;;;;18.31;52.22;98776.25;4990286;28;19914;-72
2021/10/02 12:30:31;;;;;;;;;;;;;;;18.32;52.42;98770.78;4988340;28;20362;-72
2021/10/02 12:32:57;;;;;;;;;;;;;;;18.31;51.87;98763.78;4987212;28;19929;-71
2021/10/02 12:35:23;;;;;;;;;;;;;;;18.31;51.88;98765.56;4989270;28;19922;-71
2021/10/02 12:37:48;;;;;;;;;;;;;;;18.31;50.67;98771.78;4988265;28;20377;-72
2021/10/02 12:40:13;;;;;;;;;;;;;;;18.30;51.20;98759.41;4989453;28;19918;-72
2021/10/02 12:42:38;;;;;;;;;;;;;;;18.37;51.86;98759.66;4989270;28;20421;-71
2021/10/02 12:45:05;;;;;;;;;;;;;;;18.35;51.97;98749.13;4990223;28;19914;-72
2021/10/02 12:47:30;;;;;;;;;;;;;;;18.33;51.50;98763.59;4989914;28;19924;-72
2021/10/02 12:49:59;;;;;;;;;;;;;;;18.33;51.30;98742.25;4989225;28;20289;-72
2021/10/02 12:52:25;;;;;;;;;;;;;;;18.38;51.30;98739.97;4988938;28;19920;-71
2021/10/02 12:54:52;;;;;;;;;;;;;;;18.52;51.93;98731.44;4989538;28;19921;-73
2021/10/02 12:57:29;;;;;;;;;;;;;;;18.45;51.12;98731.22;4989771;28;19914;-73
2021/10/02 13:00:12;;;;;;;;;;;;;;;18.39;51.51;98721.16;4988876;28;19940;-72
2021/10/02 13:02:42;;;;;;;;;;;;;;;18.41;50.87;98723.66;4991817;28;19913;-72
2021/10/02 13:05:07;;;;;;;;;;;;;;;18.38;51.27;98719.47;4990214;28;19914;-73
2021/10/02 13:07:34;;;;;;;;;;;;;;;18.44;51.60;98716.19;4992565;28;19947;-72
2021/10/02 13:10:13;;;;;;;;;;;;;;;18.42;51.29;98715.50;4989520;28;20247;-72
2021/10/02 13:12:54;;;;;;;;;;;;;;;18.28;50.68;98717.84;4991486;28;19918;-72
2021/10/02 13:15:39;;;;;;;;;;;;;;;18.15;51.42;98721.72;4989262;28;19921;-73
2021/10/02 13:20:39;;;;;;;;;;;;;;;18.11;51.53;98701.66;5045031;28;19928;-72
2021/10/02 13:23:06;;;;;;;;;;;;;;;18.11;51.91;98696.34;5030370;28;19912;-72
2021/10/02 13:25:36;;;;;;;;;;;;;;;18.06;51.88;98684.44;5048495;28;19994;-72
2021/10/02 13:28:02;;;;;;;;;;;;;;;18.01;51.84;98685.72;5048641;28;19919;-72
2021/10/02 13:30:29;;;;;;;;;;;;;;;18.01;51.96;98674.22;5028482;28;19999;-73
2021/10/02 13:32:55;;;;;;;;;;;;;;;18.00;51.89;98673.38;5027496;28;19947;-71
2021/10/02 13:35:21;;;;;;;;;;;;;;;18.02;52.28;98678.59;5028985;28;19924;-72
2021/10/02 13:37:46;;;;;;;;;;;;;;;18.07;52.79;98672.81;5031353;28;19928;-72
2021/10/02 13:40:23;;;;;;;;;;;;;;;18.08;52.82;98672.63;5031649;28;19913;-73
2021/10/02 13:42:49;;;;;;;;;;;;;;;18.07;51.59;98662.97;5031096;28;19963;-72
2021/10/02 13:45:14;;;;;;;;;;;;;;;18.01;52.01;98659.06;5013764;28;20327;-71
2021/10/02 13:47:39;;;;;;;;;;;;;;;17.93;52.52;98650.97;5034327;28;19921;-73
2021/10/02 13:50:06;;;;;;;;;;;;;;;17.97;52.76;98636.38;5031944;28;19920;-73
2021/10/02 13:52:33;;;;;;;;;;;;;;;18.00;52.24;98627.22;5030811;28;19913;-73